Time;durP1;ratioP1;P1;durP2;ratioP2;P2;SDS_P1;SDS_P2;PMS_P1;PMS_P2;Temp;Humidity;BMP_temperature;BMP_pressure;BME280_temperature;BME280_humidity;BME280_pressure;Samples;Min_cycle;Max_cycle;Signal;HPM_P1;HPM_P2
2021/05/09 00:00:37;;;;;;;;;;;;;;;10.72;76.34;100631.44;5037469;28;866;-78
2021/05/09 00:03:02;;;;;;;;;;;;;;;10.77;77.13;100622.13;5022575;28;1820;-77
2021/05/09 00:05:27;;;;;;;;;;;;;;;10.84;76.08;100624.28;5018167;28;980;-77
2021/05/09 00:07:53;;;;;;;;;;;;;;;10.93;75.44;100627.69;5017668;28;1051;-77
2021/05/09 00:10:19;;;;;;;;;;;;;;;10.99;75.77;100633.81;5018309;28;1639;-77
2021/05/09 00:12:44;;;;;;;;;;;;;;;11.02;75.59;100622.84;5030908;28;1844;-77
2021/05/09 00:15:11;;;;;;;;;;;;;;;11.02;75.43;100610.97;5037391;28;1961;-78
2021/05/09 00:17:38;;;;;;;;;;;;;;;11.09;74.97;100622.22;5037524;28;1068;-77
2021/05/09 00:20:06;;;;;;;;;;;;;;;11.03;75.41;100613.38;5037216;28;1489;-77
2021/05/09 00:22:32;;;;;;;;;;;;;;;11.03;75.48;100607.88;5037753;28;1741;-77
2021/05/09 00:24:57;;;;;;;;;;;;;;;11.00;75.83;100611.31;5037316;28;877;-78
2021/05/09 00:27:22;;;;;;;;;;;;;;;10.94;76.02;100603.66;5036903;28;2107;-77
2021/05/09 00:29:47;;;;;;;;;;;;;;;10.94;76.11;100611.94;5037000;28;1538;-77
2021/05/09 00:32:13;;;;;;;;;;;;;;;10.91;76.44;100605.94;5038055;28;2063;-77
2021/05/09 00:34:38;;;;;;;;;;;;;;;10.89;76.37;100613.00;5038050;28;1139;-78
2021/05/09 00:37:03;;;;;;;;;;;;;;;10.90;76.33;100614.59;5037045;28;1953;-77
2021/05/09 00:39:29;;;;;;;;;;;;;;;10.86;76.81;100608.16;5036658;28;1177;-78
2021/05/09 00:42:01;;;;;;;;;;;;;;;10.82;77.15;100605.31;5036710;28;1955;-77
2021/05/09 00:44:26;;;;;;;;;;;;;;;10.86;76.64;100608.16;5037328;28;2046;-77
2021/05/09 00:46:52;;;;;;;;;;;;;;;10.89;77.44;100608.25;5036735;28;952;-77
2021/05/09 00:49:17;;;;;;;;;;;;;;;10.90;76.64;100603.53;5036227;28;1186;-78
2021/05/09 00:51:43;;;;;;;;;;;;;;;10.93;76.74;100608.38;5036763;28;1906;-77
2021/05/09 00:54:11;;;;;;;;;;;;;;;10.95;76.87;100608.00;5037309;28;801;-78
2021/05/09 00:56:38;;;;;;;;;;;;;;;10.94;77.18;100601.69;5038942;28;1951;-78
2021/05/09 00:59:04;;;;;;;;;;;;;;;10.96;76.41;100602.16;5039550;28;1288;-77
2021/05/09 01:01:30;;;;;;;;;;;;;;;10.95;77.02;100600.53;5037966;28;868;-77
2021/05/09 01:03:56;;;;;;;;;;;;;;;10.94;77.20;100601.69;5038387;28;1832;-77
2021/05/09 01:06:21;;;;;;;;;;;;;;;10.95;77.11;100597.75;5038655;28;1355;-77
2021/05/09 01:08:47;;;;;;;;;;;;;;;10.93;77.80;100594.56;5041634;28;2055;-77
2021/05/09 01:11:12;;;;;;;;;;;;;;;10.96;77.13;100593.06;5042313;28;1832;-77
2021/05/09 01:13:37;;;;;;;;;;;;;;;11.01;76.83;100592.81;5041227;28;892;-77
2021/05/09 01:16:03;;;;;;;;;;;;;;;11.03;76.58;100594.03;5041144;28;1955;-77
2021/05/09 01:18:29;;;;;;;;;;;;;;;11.04;76.85;100587.38;5036795;28;1946;-78
2021/05/09 01:20:55;;;;;;;;;;;;;;;11.03;76.50;100590.50;5036659;28;869;-77
2021/05/09 01:23:20;;;;;;;;;;;;;;;11.04;77.04;100583.78;5036731;28;1054;-77
2021/05/09 01:25:46;;;;;;;;;;;;;;;11.05;76.55;100579.88;5040890;28;952;-77
2021/05/09 01:28:11;;;;;;;;;;;;;;;11.21;75.90;100579.91;5039158;28;1852;-78
2021/05/09 01:30:36;;;;;;;;;;;;;;;11.33;75.64;100577.06;5036315;28;904;-77
2021/05/09 01:33:05;;;;;;;;;;;;;;;11.51;75.30;100579.50;5036645;28;807;-77
2021/05/09 01:35:30;;;;;;;;;;;;;;;11.50;75.45;100580.66;5035975;28;1898;-78
2021/05/09 01:37:56;;;;;;;;;;;;;;;11.55;74.86;100583.94;5035402;28;1950;-77
2021/05/09 01:40:21;;;;;;;;;;;;;;;11.57;75.00;100580.84;5035920;28;924;-78
2021/05/09 01:42:47;;;;;;;;;;;;;;;11.56;75.64;100577.28;5034708;28;1922;-78
2021/05/09 01:45:13;;;;;;;;;;;;;;;11.56;74.92;100577.28;5035990;28;1039;-77
2021/05/09 01:47:38;;;;;;;;;;;;;;;11.53;75.10;100574.41;5067882;28;891;-77
2021/05/09 01:50:07;;;;;;;;;;;;;;;11.52;75.42;100575.56;5034326;28;2138;-77
2021/05/09 01:52:32;;;;;;;;;;;;;;;11.48;75.45;100581.00;5035619;28;829;-78
2021/05/09 01:54:57;;;;;;;;;;;;;;;11.45;75.79;100573.41;5036084;28;1938;-77
2021/05/09 01:57:23;;;;;;;;;;;;;;;11.40;75.96;100577.28;5035397;28;2011;-77
2021/05/09 01:59:48;;;;;;;;;;;;;;;11.37;76.29;100569.69;5035365;28;1186;-77
2021/05/09 02:02:13;;;;;;;;;;;;;;;11.34;76.69;100575.13;5035843;28;892;-77
2021/05/09 02:04:39;;;;;;;;;;;;;;;11.27;76.74;100573.78;5036222;28;1950;-77
2021/05/09 02:07:04;;;;;;;;;;;;;;;11.22;77.26;100571.25;5036416;28;865;-77
2021/05/09 02:09:29;;;;;;;;;;;;;;;11.21;77.32;100563.31;5036284;28;1241;-77
2021/05/09 02:11:54;;;;;;;;;;;;;;;11.20;77.23;100562.53;5036807;28;2005;-77
2021/05/09 02:14:20;;;;;;;;;;;;;;;11.20;77.66;100558.97;5036996;28;956;-78
2021/05/09 02:16:45;;;;;;;;;;;;;;;11.18;77.46;100561.28;5035673;28;1889;-77
2021/05/09 02:19:11;;;;;;;;;;;;;;;11.17;77.63;100560.47;5034951;28;2053;-77
2021/05/09 02:21:36;;;;;;;;;;;;;;;11.17;77.91;100559.69;5035149;28;871;-77
2021/05/09 02:24:01;;;;;;;;;;;;;;;11.12;78.08;100554.41;5035356;28;1003;-77
2021/05/09 02:26:26;;;;;;;;;;;;;;;11.10;78.15;100557.53;5034842;28;1864;-78
2021/05/09 02:28:52;;;;;;;;;;;;;;;11.09;78.22;100556.72;5034944;28;1291;-77
2021/05/09 02:31:17;;;;;;;;;;;;;;;11.02;78.54;100556.53;5035021;28;1055;-77
2021/05/09 02:33:42;;;;;;;;;;;;;;;10.93;78.94;100550.34;5034688;28;2083;-77
2021/05/09 02:36:08;;;;;;;;;;;;;;;10.83;79.49;100554.44;5035003;28;1944;-78
2021/05/09 02:38:33;;;;;;;;;;;;;;;10.77;79.84;100557.81;5035387;28;1248;-78
2021/05/09 02:40:58;;;;;;;;;;;;;;;10.68;80.11;100555.19;5035511;28;1059;-77
2021/05/09 02:43:24;;;;;;;;;;;;;;;10.67;80.15;100554.38;5035332;28;1856;-77
2021/05/09 02:45:49;;;;;;;;;;;;;;;10.64;80.59;100549.59;5035317;28;1024;-78
2021/05/09 02:48:14;;;;;;;;;;;;;;;10.61;80.56;100555.00;5034972;28;1308;-78
2021/05/09 02:50:39;;;;;;;;;;;;;;;10.59;80.57;100555.34;5035947;28;864;-77
2021/05/09 02:53:05;;;;;;;;;;;;;;;10.54;80.95;100555.59;5037103;28;899;-78
2021/05/09 02:55:31;;;;;;;;;;;;;;;10.53;80.94;100546.50;5039544;28;1957;-81
2021/05/09 02:57:56;;;;;;;;;;;;;;;10.52;81.16;100542.16;5038858;28;2036;-77
2021/05/09 03:00:22;;;;;;;;;;;;;;;10.47;81.13;100547.91;5038735;28;980;-78
2021/05/09 03:02:47;;;;;;;;;;;;;;;10.40;81.33;100544.13;5039119;28;971;-77
2021/05/09 03:05:14;;;;;;;;;;;;;;;10.34;81.56;100554.63;5039363;28;841;-77
2021/05/09 03:07:39;;;;;;;;;;;;;;;10.38;81.68;100550.00;5039089;28;813;-77
2021/05/09 03:10:05;;;;;;;;;;;;;;;10.37;81.24;100548.41;5038354;28;1528;-78
2021/05/09 03:12:31;;;;;;;;;;;;;;;10.35;81.98;100547.94;5038906;28;2101;-77
2021/05/09 03:14:56;;;;;;;;;;;;;;;10.34;81.48;100546.34;5038746;28;1890;-77
2021/05/09 03:17:22;;;;;;;;;;;;;;;10.24;81.57;100546.78;5038967;28;939;-78
2021/05/09 03:19:47;;;;;;;;;;;;;;;10.13;82.25;100547.25;5038012;28;1166;-78
2021/05/09 03:22:12;;;;;;;;;;;;;;;10.15;82.32;100539.44;5036984;28;1058;-78
2021/05/09 03:24:38;;;;;;;;;;;;;;;10.17;82.04;100539.09;5038181;28;1919;-78
2021/05/09 03:27:03;;;;;;;;;;;;;;;10.18;81.92;100542.69;5037732;28;1993;-78
2021/05/09 03:29:29;;;;;;;;;;;;;;;10.19;81.74;100536.81;5037587;28;1875;-77
2021/05/09 03:31:54;;;;;;;;;;;;;;;10.16;81.85;100540.25;5038252;28;1014;-77
2021/05/09 03:34:19;;;;;;;;;;;;;;;10.11;81.61;100538.53;5038155;28;841;-76
2021/05/09 03:36:45;;;;;;;;;;;;;;;10.09;81.93;100542.81;5037904;28;1901;-78
2021/05/09 03:39:10;;;;;;;;;;;;;;;10.12;81.30;100540.16;5037940;28;1272;-78
2021/05/09 03:41:35;;;;;;;;;;;;;;;10.16;81.01;100540.25;5037916;28;1942;-77
2021/05/09 03:44:01;;;;;;;;;;;;;;;10.16;80.79;100548.53;5038000;28;927;-77
2021/05/09 03:46:26;;;;;;;;;;;;;;;10.24;80.67;100550.34;5037684;28;1891;-77
2021/05/09 03:48:51;;;;;;;;;;;;;;;10.23;80.69;100547.97;5037282;28;1264;-78
2021/05/09 03:51:17;;;;;;;;;;;;;;;10.26;80.44;100552.75;5037910;28;988;-78
2021/05/09 03:53:42;;;;;;;;;;;;;;;10.28;80.28;100551.28;5038055;28;893;-77
2021/05/09 03:56:07;;;;;;;;;;;;;;;10.25;80.40;100548.41;5037401;28;1958;-78
2021/05/09 03:58:33;;;;;;;;;;;;;;;10.25;80.07;100553.94;5036889;28;2066;-77
2021/05/09 04:00:58;;;;;;;;;;;;;;;10.29;79.76;100546.53;5038245;28;873;-78
2021/05/09 04:03:28;;;;;;;;;;;;;;;10.30;79.87;100548.97;5038270;28;852;-77
2021/05/09 04:05:55;;;;;;;;;;;;;;;10.33;79.27;100548.28;5037785;28;893;-77
2021/05/09 04:08:26;;;;;;;;;;;;;;;10.32;79.10;100540.38;5037751;28;1280;-78
2021/05/09 04:10:54;;;;;;;;;;;;;;;10.33;79.47;100545.53;5037501;28;1864;-77
2021/05/09 04:13:20;;;;;;;;;;;;;;;10.31;79.30;100539.56;5037457;28;1788;-78
2021/05/09 04:15:46;;;;;;;;;;;;;;;10.34;79.18;100544.38;5037924;28;1891;-78
2021/05/09 04:18:12;;;;;;;;;;;;;;;10.34;78.72;100543.56;5037290;28;1193;-78
2021/05/09 04:20:38;;;;;;;;;;;;;;;10.35;78.76;100540.47;5037863;28;847;-77
2021/05/09 04:23:08;;;;;;;;;;;;;;;10.39;78.83;100537.81;5037678;28;918;-77
2021/05/09 04:25:34;;;;;;;;;;;;;;;10.43;78.52;100544.22;5036589;28;1958;-78
2021/05/09 04:27:59;;;;;;;;;;;;;;;10.50;77.86;100544.47;5035161;28;1932;-77
2021/05/09 04:30:25;;;;;;;;;;;;;;;10.58;77.45;100534.41;5037730;28;905;-78
2021/05/09 04:33:08;;;;;;;;;;;;;;;10.61;77.37;100536.47;5037573;28;909;-79
2021/05/09 04:35:35;;;;;;;;;;;;;;;10.64;77.40;100537.72;5036934;28;1898;-77
2021/05/09 04:38:02;;;;;;;;;;;;;;;10.66;76.83;100527.94;5037277;28;1954;-78
2021/05/09 04:40:27;;;;;;;;;;;;;;;10.75;76.69;100536.06;5037054;28;904;-78
2021/05/09 04:42:53;;;;;;;;;;;;;;;10.83;76.32;100529.59;5036849;28;1879;-77
2021/05/09 04:45:19;;;;;;;;;;;;;;;10.88;76.33;100526.56;5037236;28;984;-78
2021/05/09 04:47:44;;;;;;;;;;;;;;;10.89;75.87;100525.41;5036449;28;968;-78
2021/05/09 04:50:11;;;;;;;;;;;;;;;10.94;75.70;100527.13;5036984;28;1157;-77
2021/05/09 04:52:36;;;;;;;;;;;;;;;11.00;75.23;100535.94;5036787;28;2012;-77
2021/05/09 04:55:03;;;;;;;;;;;;;;;11.05;75.45;100530.94;5036724;28;1955;-77
2021/05/09 04:57:28;;;;;;;;;;;;;;;11.13;75.11;100531.16;5036227;28;2054;-79
2021/05/09 04:59:53;;;;;;;;;;;;;;;11.19;74.67;100532.47;5035722;28;2007;-77
2021/05/09 05:02:19;;;;;;;;;;;;;;;11.21;74.82;100530.97;5036650;28;1003;-78
2021/05/09 05:04:44;;;;;;;;;;;;;;;11.28;74.36;100528.41;5036611;28;856;-77
2021/05/09 05:07:09;;;;;;;;;;;;;;;11.34;74.16;100534.47;5036372;28;777;-77
2021/05/09 05:09:35;;;;;;;;;;;;;;;11.40;73.82;100524.75;5036564;28;1646;-77
2021/05/09 05:12:00;;;;;;;;;;;;;;;11.49;73.64;100524.56;5035827;28;2018;-77
2021/05/09 05:14:25;;;;;;;;;;;;;;;11.60;73.24;100527.59;5037096;28;900;-77
2021/05/09 05:16:51;;;;;;;;;;;;;;;11.68;73.04;100526.59;5036533;28;1965;-77
2021/05/09 05:19:16;;;;;;;;;;;;;;;11.79;72.94;100527.63;5035982;28;1197;-77
2021/05/09 05:21:41;;;;;;;;;;;;;;;11.87;72.61;100531.38;5036483;28;1015;-77
2021/05/09 05:24:08;;;;;;;;;;;;;;;11.95;71.88;100524.06;5036481;28;806;-77
2021/05/09 05:26:34;;;;;;;;;;;;;;;12.05;71.54;100529.03;5035828;28;2258;-77
2021/05/09 05:28:59;;;;;;;;;;;;;;;12.16;71.38;100519.03;5035473;28;1153;-77
2021/05/09 05:31:25;;;;;;;;;;;;;;;12.25;71.15;100529.06;5036310;28;990;-78
2021/05/09 05:33:50;;;;;;;;;;;;;;;12.33;71.15;100525.28;5036520;28;1044;-78
2021/05/09 05:36:15;;;;;;;;;;;;;;;12.36;70.58;100522.59;5036016;28;1902;-77
2021/05/09 05:38:41;;;;;;;;;;;;;;;12.51;70.24;100514.56;5034710;28;2066;-77
2021/05/09 05:41:06;;;;;;;;;;;;;;;12.65;69.89;100528.72;5036521;28;798;-76
2021/05/09 05:43:32;;;;;;;;;;;;;;;12.76;68.98;100526.16;5035825;28;1935;-77
2021/05/09 05:45:59;;;;;;;;;;;;;;;12.86;69.29;100528.34;5039018;28;939;-77
2021/05/09 05:48:25;;;;;;;;;;;;;;;13.00;68.42;100527.81;5035712;28;1268;-78
2021/05/09 05:50:51;;;;;;;;;;;;;;;13.07;68.51;100524.38;5036306;28;853;-77
2021/05/09 05:53:17;;;;;;;;;;;;;;;13.07;68.08;100527.13;5036144;28;1798;-77
2021/05/09 05:55:44;;;;;;;;;;;;;;;13.27;68.17;100531.47;5035727;28;1953;-77
2021/05/09 05:58:09;;;;;;;;;;;;;;;13.40;67.46;100526.53;5034564;28;2085;-77
2021/05/09 06:00:34;;;;;;;;;;;;;;;13.58;67.00;100523.25;5036086;28;850;-77
2021/05/09 06:03:00;;;;;;;;;;;;;;;13.71;66.08;100521.88;5036044;28;959;-78
2021/05/09 06:05:25;;;;;;;;;;;;;;;14.06;65.42;100523.59;5035829;28;1938;-77
2021/05/09 06:07:50;;;;;;;;;;;;;;;14.91;61.95;100528.63;5036278;28;838;-78
2021/05/09 06:10:16;;;;;;;;;;;;;;;15.81;59.42;100521.06;5036275;28;1264;-77
2021/05/09 06:12:41;;;;;;;;;;;;;;;16.42;58.13;100512.25;5036488;28;1899;-78
2021/05/09 06:15:07;;;;;;;;;;;;;;;15.82;58.81;100517.13;5036986;28;1890;-78
2021/05/09 06:17:32;;;;;;;;;;;;;;;16.13;59.09;100514.91;5036067;28;809;-78
2021/05/09 06:19:57;;;;;;;;;;;;;;;16.99;55.32;100520.00;5037034;28;2112;-77
2021/05/09 06:22:23;;;;;;;;;;;;;;;17.49;53.33;100528.44;5036762;28;782;-78
2021/05/09 06:24:48;;;;;;;;;;;;;;;17.65;52.74;100520.47;5037703;28;996;-78
2021/05/09 06:27:13;;;;;;;;;;;;;;;17.75;52.59;100532.00;5039031;28;2107;-77
2021/05/09 06:29:39;;;;;;;;;;;;;;;18.21;51.20;100528.38;5041128;28;1185;-78
2021/05/09 06:32:04;;;;;;;;;;;;;;;18.54;51.01;100520.66;5041913;28;840;-78
2021/05/09 06:34:29;;;;;;;;;;;;;;;19.27;50.58;100521.84;5040010;28;2057;-78
2021/05/09 06:36:55;;;;;;;;;;;;;;;19.83;48.14;100519.78;5039930;28;1982;-78
2021/05/09 06:39:26;;;;;;;;;;;;;;;20.35;47.04;100510.41;5038862;28;2095;-77
2021/05/09 06:41:51;;;;;;;;;;;;;;;20.18;46.28;100511.44;5039309;28;2071;-78
2021/05/09 06:44:17;;;;;;;;;;;;;;;20.16;45.97;100506.25;5040293;28;1954;-79
2021/05/09 06:46:42;;;;;;;;;;;;;;;20.46;46.06;100510.28;5039502;28;856;-77
2021/05/09 06:49:08;;;;;;;;;;;;;;;21.07;44.44;100495.44;5038763;28;1217;-78
2021/05/09 06:51:33;;;;;;;;;;;;;;;21.40;43.83;100495.69;5031838;28;3646;-77
2021/05/09 06:53:59;;;;;;;;;;;;;;;21.22;43.68;100496.00;5039440;28;1860;-78
2021/05/09 06:56:28;;;;;;;;;;;;;;;21.19;43.86;100497.63;5038930;28;3157;-78
2021/05/09 06:58:53;;;;;;;;;;;;;;;20.93;44.82;100493.63;5045840;28;1425;-78
2021/05/09 07:01:18;;;;;;;;;;;;;;;21.41;43.24;100488.88;5052794;28;1363;-78
2021/05/09 07:03:44;;;;;;;;;;;;;;;21.81;42.33;100491.03;5059753;28;924;-80
2021/05/09 07:06:09;;;;;;;;;;;;;;;21.91;41.79;100488.00;5060501;28;1976;-78
2021/05/09 07:08:34;;;;;;;;;;;;;;;22.00;41.83;100481.81;5040036;28;2852;-79
2021/05/09 07:11:01;;;;;;;;;;;;;;;22.64;40.58;100479.69;5039513;28;1879;-80
2021/05/09 07:13:26;;;;;;;;;;;;;;;24.07;37.51;100466.13;5039501;28;2095;-78
2021/05/09 07:15:52;;;;;;;;;;;;;;;24.42;36.56;100474.00;5039512;28;1952;-78
2021/05/09 07:18:22;;;;;;;;;;;;;;;24.60;35.90;100474.25;5052479;28;1241;-77
2021/05/09 07:20:55;;;;;;;;;;;;;;;24.63;35.52;100464.09;5019661;28;952;-78
2021/05/09 07:23:32;;;;;;;;;;;;;;;24.89;36.14;100468.50;5018559;28;1234;-78
2021/05/09 07:25:58;;;;;;;;;;;;;;;26.56;33.83;100464.31;5026985;28;2029;-78
2021/05/09 07:28:23;;;;;;;;;;;;;;;27.29;32.47;100458.19;5037775;28;2032;-77
2021/05/09 07:30:48;;;;;;;;;;;;;;;25.90;33.30;100454.63;5039445;28;1111;-78
2021/05/09 07:33:18;;;;;;;;;;;;;;;25.40;34.29;100464.06;5037431;28;3499;-77
2021/05/09 07:35:44;;;;;;;;;;;;;;;25.15;35.56;100465.66;5035000;28;3276;-78
2021/05/09 07:38:11;;;;;;;;;;;;;;;24.78;35.65;100471.69;5040490;28;2004;-79
2021/05/09 07:40:38;;;;;;;;;;;;;;;24.55;35.94;100466.34;5044302;28;2563;-79
2021/05/09 07:43:03;;;;;;;;;;;;;;;24.18;37.30;100465.81;5044202;28;1875;-78
2021/05/09 07:45:28;;;;;;;;;;;;;;;23.92;38.34;100479.03;5045650;28;1524;-79
2021/05/09 07:47:54;;;;;;;;;;;;;;;24.44;36.47;100475.09;5041421;28;2234;-79
2021/05/09 07:50:21;;;;;;;;;;;;;;;24.46;37.00;100477.47;5054595;28;1564;-78
2021/05/09 07:52:47;;;;;;;;;;;;;;;25.40;35.83;100476.16;5047354;28;2983;-77
2021/05/09 07:55:13;;;;;;;;;;;;;;;26.12;34.12;100472.88;5037691;28;1947;-76
2021/05/09 07:57:39;;;;;;;;;;;;;;;26.33;34.07;100477.72;5048836;28;2173;-77
2021/05/09 08:00:07;;;;;;;;;;;;;;;25.58;34.71;100469.13;5016874;28;1201;-77
2021/05/09 08:02:33;;;;;;;;;;;;;;;24.37;36.99;100472.50;5037238;28;1553;-77
2021/05/09 08:04:59;;;;;;;;;;;;;;;24.11;37.21;100463.19;5041793;28;857;-77
2021/05/09 08:07:24;;;;;;;;;;;;;;;24.14;37.97;100459.50;5037822;28;1059;-77
2021/05/09 08:09:49;;;;;;;;;;;;;;;24.63;36.45;100464.91;5041531;28;1272;-77
2021/05/09 08:12:15;;;;;;;;;;;;;;;24.40;37.39;100463.16;5037443;28;1903;-77
2021/05/09 08:14:40;;;;;;;;;;;;;;;23.95;38.01;100458.41;5037677;28;923;-76
2021/05/09 08:17:05;;;;;;;;;;;;;;;22.68;40.32;100457.91;5037810;28;1968;-77
2021/05/09 08:19:31;;;;;;;;;;;;;;;22.67;40.90;100453.50;5037342;28;2075;-77
2021/05/09 08:21:56;;;;;;;;;;;;;;;23.63;39.28;100460.03;5039236;28;869;-77
2021/05/09 08:24:21;;;;;;;;;;;;;;;23.91;38.28;100458.50;5037282;28;868;-77
2021/05/09 08:26:47;;;;;;;;;;;;;;;22.97;39.80;100460.06;5037957;28;1903;-77
2021/05/09 08:29:12;;;;;;;;;;;;;;;22.95;40.32;100461.75;5023191;28;3072;-77
2021/05/09 08:31:37;;;;;;;;;;;;;;;23.46;39.50;100443.19;5018106;28;1059;-76
2021/05/09 08:34:03;;;;;;;;;;;;;;;24.07;37.99;100446.38;5033063;28;1849;-77
2021/05/09 08:36:28;;;;;;;;;;;;;;;25.26;36.24;100437.91;5036894;28;1894;-77
2021/05/09 08:38:54;;;;;;;;;;;;;;;26.76;34.22;100436.44;5036537;28;1189;-77
2021/05/09 08:41:19;;;;;;;;;;;;;;;27.75;31.98;100429.88;5037116;28;1940;-77
2021/05/09 08:43:45;;;;;;;;;;;;;;;28.13;31.03;100434.25;5036861;28;846;-77
2021/05/09 08:46:14;;;;;;;;;;;;;;;26.88;32.48;100429.09;5036243;28;1988;-77
2021/05/09 08:48:40;;;;;;;;;;;;;;;26.63;33.00;100425.22;5036319;28;2055;-76
2021/05/09 08:51:06;;;;;;;;;;;;;;;26.67;32.71;100427.13;5037803;28;905;-77
2021/05/09 08:53:33;;;;;;;;;;;;;;;25.43;34.29;100430.03;5038619;28;1908;-78
2021/05/09 08:55:58;;;;;;;;;;;;;;;25.96;33.78;100420.13;5053676;28;1955;-77
2021/05/09 08:58:24;;;;;;;;;;;;;;;27.23;31.96;100411.06;5034833;28;2559;-77
2021/05/09 09:00:49;;;;;;;;;;;;;;;27.92;29.94;100409.72;5037936;28;995;-78
2021/05/09 09:03:15;;;;;;;;;;;;;;;27.12;31.63;100392.47;5039379;28;995;-77
2021/05/09 09:05:44;;;;;;;;;;;;;;;26.52;32.05;100398.56;5036964;28;1871;-77
2021/05/09 09:08:10;;;;;;;;;;;;;;;26.35;32.70;100387.47;5035782;28;1860;-76
2021/05/09 09:10:44;;;;;;;;;;;;;;;27.10;31.33;100380.06;5037312;28;840;-77
2021/05/09 09:13:19;;;;;;;;;;;;;;;28.12;30.72;100364.59;5037162;28;2687;-77
2021/05/09 09:16:01;;;;;;;;;;;;;;;27.33;30.50;100358.84;5037455;28;2118;-78
2021/05/09 09:18:37;;;;;;;;;;;;;;;25.51;33.25;100368.41;5034017;28;2262;-79
2021/05/09 09:21:27;;;;;;;;;;;;;;;26.02;33.14;100356.81;5038437;28;1901;-77
2021/05/09 09:24:06;;;;;;;;;;;;;;;27.85;30.36;100353.28;5034054;28;3163;-77
2021/05/09 09:26:36;;;;;;;;;;;;;;;29.69;28.07;100347.84;5034560;28;1952;-77
2021/05/09 09:29:28;;;;;;;;;;;;;;;30.13;25.66;100349.94;5037513;28;1193;-75
2021/05/09 09:31:56;;;;;;;;;;;;;;;29.87;26.36;100344.84;5037677;28;823;-74
2021/05/09 09:34:35;;;;;;;;;;;;;;;28.47;27.07;100340.63;5040116;28;1669;-78
2021/05/09 09:37:02;;;;;;;;;;;;;;;27.72;28.58;100345.75;5041961;28;1003;-76
2021/05/09 09:39:46;;;;;;;;;;;;;;;27.65;29.22;100340.41;5039185;28;1217;-77
2021/05/09 09:42:12;;;;;;;;;;;;;;;28.39;28.29;100328.06;5038655;28;988;-76
2021/05/09 09:44:37;;;;;;;;;;;;;;;27.72;28.97;100330.75;5038332;28;1748;-77
2021/05/09 09:47:02;;;;;;;;;;;;;;;27.85;28.56;100337.03;5040809;28;1967;-78
2021/05/09 09:49:30;;;;;;;;;;;;;;;27.97;28.89;100343.81;5037089;28;1934;-78
2021/05/09 09:52:01;;;;;;;;;;;;;;;28.18;28.64;100353.38;5037581;28;2113;-77
2021/05/09 09:54:46;;;;;;;;;;;;;;;28.50;27.82;100353.88;5037560;28;903;-77
2021/05/09 09:57:29;;;;;;;;;;;;;;;27.38;28.94;100347.66;5019476;28;872;-76
2021/05/09 10:00:14;;;;;;;;;;;;;;;29.16;27.40;100350.22;5016345;28;1272;-73
2021/05/09 10:02:41;;;;;;;;;;;;;;;27.47;27.67;100368.75;5019386;28;880;-78
2021/05/09 10:05:07;;;;;;;;;;;;;;;27.38;28.07;100361.03;5017590;28;1890;-78
2021/05/09 10:07:33;;;;;;;;;;;;;;;28.64;26.19;100356.03;5031941;28;2065;-77
2021/05/09 10:09:59;;;;;;;;;;;;;;;29.23;26.15;100354.75;5065453;28;3966;-76
2021/05/09 10:12:25;;;;;;;;;;;;;;;29.68;24.36;100347.06;5021681;28;4380;-76
2021/05/09 10:14:51;;;;;;;;;;;;;;;29.43;25.17;100365.47;5033382;28;2010;-76
2021/05/09 10:17:19;;;;;;;;;;;;;;;31.19;23.75;100355.63;5036425;28;3104;-76
2021/05/09 10:19:46;;;;;;;;;;;;;;;31.42;23.70;100350.19;5036185;28;2023;-76
2021/05/09 10:22:29;;;;;;;;;;;;;;;30.39;24.90;100355.03;5035733;28;900;-74
2021/05/09 10:24:54;;;;;;;;;;;;;;;29.63;25.41;100345.69;5051637;28;1197;-76
2021/05/09 10:27:32;;;;;;;;;;;;;;;29.29;26.75;100354.84;5036203;28;1894;-76
2021/05/09 10:29:57;;;;;;;;;;;;;;;27.81;28.96;100361.97;5036389;28;3254;-78
2021/05/09 10:32:23;;;;;;;;;;;;;;;28.04;28.84;100360.50;5035803;28;2161;-75
2021/05/09 10:34:51;;;;;;;;;;;;;;;27.25;30.67;100352.66;5037521;28;814;-75
2021/05/09 10:37:35;;;;;;;;;;;;;;;27.76;28.61;100345.56;5037487;28;901;-77
2021/05/09 10:40:20;;;;;;;;;;;;;;;28.82;27.45;100325.94;5038385;28;1166;-76
2021/05/09 10:42:47;;;;;;;;;;;;;;;29.14;26.49;100332.84;5021152;28;2017;-76
2021/05/09 10:45:33;;;;;;;;;;;;;;;29.04;26.17;100334.16;5039357;28;1894;-76
2021/05/09 10:48:25;;;;;;;;;;;;;;;28.02;27.00;100334.66;5027447;28;1944;-78
2021/05/09 10:50:50;;;;;;;;;;;;;;;28.66;25.96;100312.97;5039145;28;1960;-77
2021/05/09 10:53:33;;;;;;;;;;;;;;;29.39;25.55;100319.38;5035241;28;1579;-76
2021/05/09 10:56:05;;;;;;;;;;;;;;;29.58;24.71;100328.53;5033012;28;1781;-77
2021/05/09 10:58:44;;;;;;;;;;;;;;;29.02;25.68;100313.97;5036923;28;1966;-76
2021/05/09 11:01:10;;;;;;;;;;;;;;;30.72;23.26;100309.16;5035566;28;872;-74
2021/05/09 11:03:35;;;;;;;;;;;;;;;30.89;22.57;100309.38;5034822;28;1996;-76
2021/05/09 11:06:15;;;;;;;;;;;;;;;32.59;21.07;100297.50;5035258;28;2685;-75
2021/05/09 11:08:53;;;;;;;;;;;;;;;31.31;21.72;100297.44;5035242;28;1189;-75
2021/05/09 11:11:25;;;;;;;;;;;;;;;31.85;22.31;100307.59;5035153;28;1932;-75
2021/05/09 11:13:56;;;;;;;;;;;;;;;31.34;22.39;100300.56;5034905;28;1994;-75
2021/05/09 11:16:22;;;;;;;;;;;;;;;31.85;21.08;100299.03;5030047;28;1797;-75
2021/05/09 11:18:57;;;;;;;;;;;;;;;32.37;20.15;100298.13;5038458;28;1260;-75
2021/05/09 11:21:24;;;;;;;;;;;;;;;32.77;19.49;100299.97;5039331;28;789;-75
2021/05/09 11:23:51;;;;;;;;;;;;;;;32.66;20.99;100294.16;5023422;28;1665;-76
2021/05/09 11:26:28;;;;;;;;;;;;;;;31.42;22.21;100305.34;5028191;28;2037;-75
2021/05/09 11:29:13;;;;;;;;;;;;;;;29.34;24.78;100308.69;5036642;28;1197;-75
2021/05/09 11:31:44;;;;;;;;;;;;;;;27.63;27.49;100328.72;5038396;28;976;-75
2021/05/09 11:34:10;;;;;;;;;;;;;;;25.87;29.79;100321.84;5034539;28;3131;-76
2021/05/09 11:36:38;;;;;;;;;;;;;;;24.25;38.88;100312.50;5038428;28;2021;-76
2021/05/09 11:39:10;;;;;;;;;;;;;;;23.12;40.62;100316.94;5037459;28;2067;-76
2021/05/09 11:41:57;;;;;;;;;;;;;;;22.86;43.23;100327.25;5038465;28;2277;-75
2021/05/09 11:44:30;;;;;;;;;;;;;;;23.29;41.96;100320.50;5039760;28;831;-75
2021/05/09 11:46:56;;;;;;;;;;;;;;;24.61;38.96;100311.38;5039549;28;1958;-75
2021/05/09 11:49:24;;;;;;;;;;;;;;;28.06;30.68;100283.44;5038049;28;1659;-75
2021/05/09 11:51:51;;;;;;;;;;;;;;;28.91;28.06;100271.13;5038816;28;881;-75
2021/05/09 11:54:18;;;;;;;;;;;;;;;30.34;27.90;100265.38;5037045;28;857;-75
2021/05/09 11:56:53;;;;;;;;;;;;;;;32.14;24.61;100248.69;5037579;28;2656;-75
2021/05/09 11:59:38;;;;;;;;;;;;;;;32.50;24.58;100247.06;5037276;28;2138;-75
2021/05/09 12:02:31;;;;;;;;;;;;;;;32.93;22.25;100241.28;5038284;28;917;-75
2021/05/09 12:05:24;;;;;;;;;;;;;;;35.40;20.77;100238.53;5038146;28;802;-74
2021/05/09 12:07:59;;;;;;;;;;;;;;;36.26;18.72;100218.47;5037672;28;853;-75
2021/05/09 12:10:24;;;;;;;;;;;;;;;34.39;18.58;100225.47;5038194;28;2062;-76
2021/05/09 12:12:56;;;;;;;;;;;;;;;33.02;20.91;100236.63;5037843;28;961;-74
2021/05/09 12:15:21;;;;;;;;;;;;;;;33.99;19.84;100224.00;5038187;28;831;-75
2021/05/09 12:17:54;;;;;;;;;;;;;;;34.62;18.92;100231.09;5037003;28;991;-74
2021/05/09 12:20:26;;;;;;;;;;;;;;;32.31;21.39;100229.56;5036956;28;2107;-74
2021/05/09 12:22:53;;;;;;;;;;;;;;;30.00;23.60;100240.06;5017179;28;821;-74
2021/05/09 12:25:49;;;;;;;;;;;;;;;29.12;25.00;100233.03;5017640;28;2083;-74
2021/05/09 12:28:16;;;;;;;;;;;;;;;30.11;23.00;100210.97;5008649;28;1396;-75
2021/05/09 12:30:44;;;;;;;;;;;;;;;29.16;24.90;100208.09;5018951;28;865;-75
2021/05/09 12:33:09;;;;;;;;;;;;;;;27.94;26.10;100202.94;5017823;28;2112;-74
2021/05/09 12:35:48;;;;;;;;;;;;;;;27.46;27.08;100205.59;5036806;28;2080;-74
2021/05/09 12:38:34;;;;;;;;;;;;;;;27.67;27.09;100195.28;5036546;28;2112;-75
2021/05/09 12:41:04;;;;;;;;;;;;;;;27.70;27.37;100191.50;5036054;28;2040;-74
2021/05/09 12:43:49;;;;;;;;;;;;;;;27.82;27.21;100196.19;5035697;28;2157;-73
2021/05/09 12:46:41;;;;;;;;;;;;;;;26.82;28.11;100188.22;5037273;28;1902;-74
2021/05/09 12:49:34;;;;;;;;;;;;;;;28.42;26.71;100170.97;5036203;28;2162;-75
2021/05/09 12:52:05;;;;;;;;;;;;;;;29.77;24.41;100182.00;5036388;28;1254;-75
2021/05/09 12:54:34;;;;;;;;;;;;;;;28.94;25.59;100184.94;5037130;28;833;-75